createdAt,value
2023-02-04T00:00:22.084Z,11.60
2023-02-04T00:02:50.285Z,11.60
2023-02-04T00:05:18.919Z,11.60
2023-02-04T00:07:46.126Z,11.60
2023-02-04T00:10:13.762Z,11.60
2023-02-04T00:12:40.975Z,11.50
2023-02-04T00:15:08.683Z,11.50
2023-02-04T00:17:35.830Z,11.50
2023-02-04T00:20:03.104Z,11.50
2023-02-04T00:22:30.224Z,11.50
2023-02-04T00:24:57.425Z,11.50
2023-02-04T00:27:24.571Z,11.50
2023-02-04T00:29:51.713Z,11.50
2023-02-04T00:32:19.038Z,11.50
2023-02-04T00:34:46.211Z,11.40
2023-02-04T00:37:13.349Z,11.40
2023-02-04T00:39:40.561Z,11.40
2023-02-04T00:42:08.028Z,11.40
2023-02-04T00:44:36.715Z,11.40
2023-02-04T00:47:04.993Z,11.40
2023-02-04T00:49:34.655Z,11.40
2023-02-04T00:52:02.493Z,11.40
2023-02-04T00:54:30.034Z,11.40
2023-02-04T00:56:57.503Z,11.30
2023-02-04T00:59:25.211Z,11.30
2023-02-04T01:01:52.678Z,11.30
2023-02-04T01:04:19.836Z,11.20
2023-02-04T01:06:47.220Z,11.30
2023-02-04T01:09:14.459Z,11.20
2023-02-04T01:11:41.662Z,11.20
2023-02-04T01:14:08.922Z,11.20
2023-02-04T01:16:40.384Z,11.20
2023-02-04T01:19:07.698Z,11.20
2023-02-04T01:21:34.989Z,11.10
2023-02-04T01:24:02.268Z,11.10
2023-02-04T01:26:29.648Z,11.10
2023-02-04T01:28:56.901Z,11.10
2023-02-04T01:31:24.030Z,11.10
2023-02-04T01:33:51.338Z,11.10
2023-02-04T01:36:21.974Z,11.00
2023-02-04T01:38:50.287Z,11.00
2023-02-04T01:41:18.744Z,11.00
2023-02-04T01:43:49.965Z,10.90
2023-02-04T01:46:17.816Z,10.90
2023-02-04T01:48:45.490Z,10.90
2023-02-04T01:51:20.106Z,10.80
2023-02-04T01:53:47.458Z,10.80
2023-02-04T01:56:21.612Z,10.80
2023-02-04T01:58:50.173Z,10.70
2023-02-04T02:01:45.304Z,10.70
2023-02-04T02:04:17.514Z,10.60
2023-02-04T02:06:53.410Z,10.60
2023-02-04T02:09:20.582Z,10.60
2023-02-04T02:11:48.497Z,10.50
2023-02-04T02:14:16.103Z,10.50
2023-02-04T02:16:43.886Z,10.40
2023-02-04T02:19:18.035Z,10.40
2023-02-04T02:22:03.732Z,10.40
2023-02-04T02:24:34.640Z,10.30
2023-02-04T02:27:10.768Z,10.30
2023-02-04T02:29:42.898Z,10.30
2023-02-04T02:32:13.774Z,10.30
2023-02-04T02:34:43.427Z,10.30
2023-02-04T02:37:11.202Z,10.30
2023-02-04T02:39:41.208Z,10.20
2023-02-04T02:42:09.774Z,10.30
2023-02-04T02:44:37.016Z,10.30
2023-02-04T02:47:04.274Z,10.20
2023-02-04T02:49:33.480Z,10.30
2023-02-04T02:52:00.863Z,10.30
2023-02-04T02:54:31.541Z,10.30
2023-02-04T02:57:00.114Z,10.30
2023-02-04T02:59:28.456Z,10.30
2023-02-04T03:02:01.107Z,10.30
2023-02-04T03:04:33.999Z,10.40
2023-02-04T03:07:02.130Z,10.40
2023-02-04T03:09:30.173Z,10.40
2023-02-04T03:11:57.426Z,10.40
2023-02-04T03:14:25.717Z,10.40
2023-02-04T03:16:55.867Z,10.40
2023-02-04T03:19:28.325Z,10.40
2023-02-04T03:21:57.326Z,10.40
2023-02-04T03:24:25.185Z,10.40
2023-02-04T03:26:52.645Z,10.40
2023-02-04T03:29:19.862Z,10.30
2023-02-04T03:32:43.045Z,10.30
2023-02-04T03:35:10.338Z,10.30
2023-02-04T03:41:47.401Z,10.20
2023-02-04T03:44:14.512Z,10.20
2023-02-04T03:46:41.839Z,10.10
2023-02-04T03:49:09.106Z,10.10
2023-02-04T03:51:36.395Z,10.10
2023-02-04T03:54:04.202Z,10.10
2023-02-04T03:56:31.419Z,10.00
2023-02-04T03:58:58.515Z,10.00
2023-02-04T04:01:25.912Z,10.00
2023-02-04T04:03:53.145Z,10.00
2023-02-04T04:06:20.362Z,10.00
2023-02-04T04:08:47.577Z,9.90
2023-02-04T04:11:14.964Z,9.90
2023-02-04T04:13:42.212Z,9.90
2023-02-04T04:16:09.433Z,9.90
2023-02-04T04:18:36.837Z,9.90
2023-02-04T04:21:04.279Z,9.90
2023-02-04T04:23:31.529Z,9.90
2023-02-04T04:25:58.692Z,9.90
2023-02-04T04:28:25.859Z,9.90
2023-02-04T04:30:53.161Z,9.90
2023-02-04T04:33:20.429Z,9.90
2023-02-04T04:35:47.724Z,9.80
2023-02-04T04:38:14.843Z,9.80
2023-02-04T04:40:41.948Z,9.80
2023-02-04T04:43:09.129Z,9.80
2023-02-04T04:45:36.302Z,9.80
2023-02-04T04:48:03.689Z,9.80
2023-02-04T04:50:31.234Z,9.80
2023-02-04T04:52:58.630Z,9.80
2023-02-04T04:55:25.819Z,9.80
2023-02-04T04:57:53.057Z,9.80
2023-02-04T05:00:21.681Z,9.80
2023-02-04T05:02:49.238Z,9.80
2023-02-04T05:05:16.481Z,9.80
2023-02-04T05:07:43.731Z,9.90
2023-02-04T05:10:11.031Z,9.80
2023-02-04T05:12:38.322Z,9.90
2023-02-04T05:15:07.287Z,9.90
2023-02-04T05:17:34.745Z,9.90
2023-02-04T05:20:01.912Z,9.90
2023-02-04T05:22:29.269Z,9.90
2023-02-04T05:24:56.712Z,9.90
2023-02-04T05:27:23.892Z,9.90
2023-02-04T05:29:51.140Z,9.90
2023-02-04T05:32:18.287Z,9.90
2023-02-04T05:34:45.581Z,9.90
2023-02-04T05:37:12.905Z,9.90
2023-02-04T05:39:40.239Z,9.90
2023-02-04T05:42:07.384Z,10.00
2023-02-04T05:44:34.566Z,9.90
2023-02-04T05:47:01.676Z,9.90
2023-02-04T05:49:29.034Z,9.90
2023-02-04T05:51:56.381Z,10.00
2023-02-04T05:54:23.650Z,10.00
2023-02-04T05:56:51.914Z,10.00
2023-02-04T05:59:19.096Z,10.00
2023-02-04T06:01:46.309Z,10.00
2023-02-04T06:04:15.628Z,10.00
2023-02-04T06:06:44.014Z,10.00
2023-02-04T06:09:12.152Z,10.00
2023-02-04T06:11:39.432Z,10.00
2023-02-04T06:14:07.038Z,10.10
2023-02-04T06:16:34.406Z,10.10
2023-02-04T06:19:01.634Z,10.00
2023-02-04T06:21:28.943Z,10.10
2023-02-04T06:23:56.104Z,10.10
2023-02-04T06:26:23.841Z,10.10
2023-02-04T06:28:51.055Z,10.10
2023-02-04T06:31:20.892Z,10.10
2023-02-04T06:33:48.248Z,10.10
2023-02-04T06:36:15.381Z,10.10
2023-02-04T06:38:42.593Z,10.10
2023-02-04T06:41:09.920Z,10.10
2023-02-04T06:43:37.189Z,10.10
2023-02-04T06:46:04.514Z,10.20
2023-02-04T06:48:31.695Z,10.20
2023-02-04T06:50:58.902Z,10.20
2023-02-04T06:53:26.919Z,10.20
2023-02-04T06:55:54.033Z,10.10
2023-02-04T06:58:21.180Z,10.20
2023-02-04T07:00:50.454Z,10.20
2023-02-04T07:03:17.633Z,10.20
2023-02-04T07:05:44.795Z,10.20
2023-02-04T07:08:11.956Z,10.10
2023-02-04T07:10:39.200Z,10.10
2023-02-04T07:13:06.290Z,10.10
2023-02-04T07:15:33.608Z,10.10
2023-02-04T07:18:00.786Z,10.10
2023-02-04T07:20:28.048Z,10.10
2023-02-04T07:22:55.296Z,10.10
2023-02-04T07:25:22.724Z,10.10
2023-02-04T07:27:50.051Z,10.10
2023-02-04T07:30:17.653Z,10.10
2023-02-04T07:32:44.881Z,10.10
2023-02-04T07:35:12.796Z,10.10
2023-02-04T07:37:40.305Z,10.20
2023-02-04T07:40:08.173Z,10.20
2023-02-04T07:42:35.351Z,10.10
2023-02-04T07:45:02.569Z,10.20
2023-02-04T07:47:29.707Z,10.20
2023-02-04T07:49:57.243Z,10.20
2023-02-04T07:52:27.206Z,10.20
2023-02-04T07:54:54.459Z,10.20
2023-02-04T07:57:21.958Z,10.20
2023-02-04T07:59:49.156Z,10.20
2023-02-04T08:02:16.421Z,10.30
2023-02-04T08:04:43.592Z,10.30
2023-02-04T08:07:10.862Z,10.30
2023-02-04T08:09:38.116Z,10.40
2023-02-04T08:12:05.868Z,10.40
2023-02-04T08:14:33.067Z,10.40
2023-02-04T08:17:00.248Z,10.40
2023-02-04T08:19:27.519Z,10.40
2023-02-04T08:21:54.791Z,10.40
2023-02-04T08:24:22.039Z,10.40
2023-02-04T08:26:51.121Z,10.40
2023-02-04T08:29:18.981Z,10.50
2023-02-04T08:31:47.900Z,10.40
2023-02-04T08:34:15.268Z,10.40
2023-02-04T08:36:42.496Z,10.50
2023-02-04T08:39:09.576Z,10.50
2023-02-04T08:41:36.847Z,10.50
2023-02-04T08:44:04.277Z,10.60
2023-02-04T08:46:31.680Z,10.60
2023-02-04T08:48:58.926Z,10.70
2023-02-04T08:51:26.089Z,10.70
2023-02-04T08:53:55.351Z,10.70
2023-02-04T08:56:22.928Z,10.80
2023-02-04T08:58:50.326Z,10.80
2023-02-04T09:01:17.586Z,10.90
2023-02-04T09:03:45.096Z,10.90
2023-02-04T09:06:12.676Z,11.00
2023-02-04T09:08:39.938Z,11.00
2023-02-04T09:11:07.202Z,11.10
2023-02-04T09:13:34.332Z,11.20
2023-02-04T09:16:01.618Z,11.20
2023-02-04T09:18:30.851Z,11.30
2023-02-04T09:20:58.214Z,11.40
2023-02-04T09:23:25.977Z,11.40
2023-02-04T09:25:53.246Z,11.50
2023-02-04T09:28:20.576Z,11.50
2023-02-04T09:30:48.199Z,11.60
2023-02-04T09:33:17.162Z,11.60
2023-02-04T09:35:45.101Z,11.70
2023-02-04T09:38:12.319Z,11.70
2023-02-04T09:40:46.405Z,11.80
2023-02-04T09:43:27.718Z,11.80
2023-02-04T09:45:56.629Z,11.90
2023-02-04T09:48:25.565Z,12.00
2023-02-04T09:51:08.050Z,12.10
2023-02-04T09:53:36.870Z,12.10
2023-02-04T09:56:04.598Z,12.30
2023-02-04T09:58:35.411Z,12.40
2023-02-04T10:01:18.591Z,12.40
2023-02-04T10:03:48.735Z,12.50
2023-02-04T10:06:24.100Z,12.60
2023-02-04T10:08:53.067Z,12.60
2023-02-04T10:11:23.797Z,12.70
2023-02-04T10:13:55.350Z,12.70
2023-02-04T10:16:32.256Z,12.80
2023-02-04T10:19:03.991Z,12.80
2023-02-04T10:21:40.517Z,12.90
2023-02-04T10:24:19.003Z,12.90
2023-02-04T10:26:48.638Z,13.00
2023-02-04T10:29:19.888Z,13.00
2023-02-04T10:31:50.789Z,13.10
2023-02-04T10:34:42.598Z,13.20
2023-02-04T10:37:23.014Z,13.20
2023-02-04T10:39:50.390Z,13.20
2023-02-04T10:42:30.101Z,13.30
2023-02-04T10:44:58.582Z,13.30
2023-02-04T10:47:31.328Z,13.40
2023-02-04T10:50:30.838Z,13.50
2023-02-04T10:53:18.737Z,13.60
2023-02-04T10:55:49.389Z,13.80
2023-02-04T10:58:25.029Z,13.80
2023-02-04T11:00:54.619Z,13.90
2023-02-04T11:03:26.707Z,13.90
2023-02-04T11:05:59.066Z,14.00
2023-02-04T11:08:31.128Z,14.10
2023-02-04T11:11:14.393Z,14.30
2023-02-04T11:13:50.613Z,14.60
2023-02-04T11:16:17.844Z,14.70
2023-02-04T11:18:56.600Z,14.90
2023-02-04T11:21:25.833Z,15.00
2023-02-04T11:24:14.193Z,15.10
2023-02-04T11:26:51.756Z,15.30
2023-02-04T11:33:25.733Z,15.60
2023-02-04T11:36:12.125Z,15.80
2023-02-04T11:38:40.131Z,15.90
2023-02-04T11:41:18.175Z,15.90
2023-02-04T11:43:45.435Z,15.90
2023-02-04T11:46:17.743Z,15.80
2023-02-04T11:48:52.628Z,15.80
2023-02-04T11:51:28.608Z,15.70
2023-02-04T11:54:01.447Z,15.80
2023-02-04T11:56:30.705Z,15.80
2023-02-04T11:58:59.216Z,15.90
2023-02-04T12:01:34.261Z,16.00
2023-02-04T12:04:06.820Z,16.00
2023-02-04T12:06:37.378Z,16.10
2023-02-04T12:09:23.400Z,16.10
2023-02-04T12:11:57.054Z,16.00
2023-02-04T12:14:32.841Z,15.90
2023-02-04T12:17:00.276Z,15.90
2023-02-04T12:19:28.572Z,15.80
2023-02-04T12:21:56.023Z,15.60
2023-02-04T12:24:24.578Z,15.50
2023-02-04T12:26:51.971Z,15.40
2023-02-04T12:29:21.896Z,15.30
2023-02-04T12:31:49.367Z,15.30
2023-02-04T12:34:17.728Z,15.20
2023-02-04T12:36:44.984Z,15.20
2023-02-04T12:39:12.318Z,15.10
2023-02-04T12:41:39.560Z,15.10
2023-02-04T12:44:09.842Z,15.00
2023-02-04T12:46:37.181Z,14.90
2023-02-04T12:49:04.382Z,15.00
2023-02-04T12:51:33.008Z,15.00
2023-02-04T12:54:00.286Z,15.00
2023-02-04T12:56:27.531Z,15.00
2023-02-04T12:58:54.867Z,15.00
2023-02-04T13:01:22.153Z,15.00
2023-02-04T13:03:49.425Z,15.10
2023-02-04T13:06:16.704Z,15.20
2023-02-04T13:08:43.945Z,15.20
2023-02-04T13:11:12.118Z,15.30
2023-02-04T13:13:41.841Z,15.30
2023-02-04T13:16:09.129Z,15.40
2023-02-04T13:18:36.508Z,15.40
2023-02-04T13:21:04.387Z,15.50
2023-02-04T13:23:31.710Z,15.50
2023-02-04T13:26:04.552Z,15.50
2023-02-04T13:28:31.687Z,15.50
2023-02-04T13:30:58.858Z,15.50
2023-02-04T13:33:38.337Z,15.50
2023-02-04T13:36:09.101Z,15.50
2023-02-04T13:38:36.407Z,15.50
2023-02-04T13:41:03.686Z,15.50
2023-02-04T13:43:30.993Z,15.40
2023-02-04T13:45:58.265Z,15.40
2023-02-04T13:48:25.581Z,15.50
2023-02-04T13:50:55.858Z,15.60
2023-02-04T13:53:23.183Z,15.60
2023-02-04T13:55:50.404Z,15.70
2023-02-04T13:58:17.747Z,15.70
2023-02-04T14:00:45.033Z,15.70
2023-02-04T14:03:12.521Z,15.60
2023-02-04T14:06:45.317Z,15.70
2023-02-04T14:09:13.305Z,15.70
2023-02-04T14:11:41.066Z,15.80
2023-02-04T14:14:08.890Z,15.90
2023-02-04T14:16:37.903Z,16.10
2023-02-04T14:19:09.689Z,16.30
2023-02-04T14:21:36.847Z,16.50
2023-02-04T14:24:04.546Z,16.60
2023-02-04T14:26:31.731Z,16.70
2023-02-04T14:28:58.920Z,16.70
2023-02-04T14:31:26.126Z,16.70
2023-02-04T14:33:53.462Z,16.70
2023-02-04T14:36:22.349Z,16.80
2023-02-04T14:38:49.946Z,16.90
2023-02-04T14:41:20.256Z,16.90
2023-02-04T14:43:57.203Z,17.00
2023-02-04T14:46:24.628Z,16.90
2023-02-04T14:48:52.731Z,16.90
2023-02-04T14:51:19.982Z,16.80
2023-02-04T14:53:49.787Z,16.80
2023-02-04T14:56:17.524Z,16.70
2023-02-04T14:58:44.861Z,16.60
2023-02-04T15:01:12.181Z,16.60
2023-02-04T15:03:39.354Z,16.50
2023-02-04T15:06:07.241Z,16.30
2023-02-04T15:08:34.767Z,16.20
2023-02-04T15:11:05.565Z,16.00
2023-02-04T15:13:33.153Z,15.90
2023-02-04T15:16:00.322Z,15.80
2023-02-04T15:18:27.897Z,15.70
2023-02-04T15:20:55.329Z,15.50
2023-02-04T15:23:22.841Z,15.40
2023-02-04T15:25:57.427Z,15.30
2023-02-04T15:28:25.921Z,15.20
2023-02-04T15:30:53.725Z,15.20
2023-02-04T15:33:21.186Z,15.10
2023-02-04T15:35:48.572Z,14.90
2023-02-04T15:38:15.951Z,14.80
2023-02-04T15:40:43.212Z,14.80
2023-02-04T15:43:10.574Z,14.70
2023-02-04T15:45:41.517Z,14.60
2023-02-04T15:48:09.049Z,14.50
2023-02-04T15:50:37.737Z,14.40
2023-02-04T15:53:05.185Z,14.40
2023-02-04T15:55:33.155Z,14.30
2023-02-04T15:58:01.332Z,14.20
2023-02-04T16:00:28.528Z,14.20
2023-02-04T16:02:55.834Z,14.10
2023-02-04T16:05:23.628Z,14.10
2023-02-04T16:07:50.879Z,14.00
2023-02-04T16:10:19.464Z,14.00
2023-02-04T16:12:49.535Z,13.90
2023-02-04T16:15:17.467Z,13.90
2023-02-04T16:17:47.945Z,13.80
2023-02-04T16:20:15.751Z,13.80
2023-02-04T16:22:42.922Z,13.70
2023-02-04T16:25:10.804Z,13.70
2023-02-04T16:27:38.150Z,13.70
2023-02-04T16:30:06.009Z,13.60
2023-02-04T16:32:33.952Z,13.60
2023-02-04T16:35:02.586Z,13.50
2023-02-04T16:37:30.185Z,13.50
2023-02-04T16:39:57.462Z,13.50
2023-02-04T16:42:24.899Z,13.40
2023-02-04T16:44:52.035Z,13.40
2023-02-04T16:47:19.227Z,13.30
2023-02-04T16:49:48.384Z,13.30
2023-02-04T16:52:18.243Z,13.30
2023-02-04T16:54:45.465Z,13.20
2023-02-04T16:57:17.775Z,13.20
2023-02-04T16:59:44.860Z,13.20
2023-02-04T17:02:12.288Z,13.10
2023-02-04T17:04:39.537Z,13.10
2023-02-04T17:07:06.765Z,13.10
2023-02-04T17:09:34.061Z,13.00
2023-02-04T17:12:01.343Z,13.00
2023-02-04T17:14:31.533Z,13.00
2023-02-04T17:16:58.807Z,12.90
2023-02-04T17:19:26.051Z,12.90
2023-02-04T17:22:12.189Z,12.90
2023-02-04T17:24:43.674Z,12.80
2023-02-04T17:27:11.569Z,12.80
2023-02-04T17:29:38.937Z,12.80
2023-02-04T17:32:07.765Z,12.70
2023-02-04T17:34:34.955Z,12.70
2023-02-04T17:37:04.566Z,12.60
2023-02-04T17:39:31.698Z,12.60
2023-02-04T17:41:58.857Z,12.60
2023-02-04T17:44:27.724Z,12.50
2023-02-04T17:46:55.358Z,12.50
2023-02-04T17:49:22.744Z,12.50
2023-02-04T17:51:49.955Z,12.40
2023-02-04T17:54:17.307Z,12.40
2023-02-04T17:56:44.662Z,12.40
2023-02-04T17:59:14.688Z,12.40
2023-02-04T18:01:43.211Z,12.30
2023-02-04T18:04:14.485Z,12.30
2023-02-04T18:06:45.051Z,12.20
2023-02-04T18:09:18.807Z,12.20
2023-02-04T18:11:46.021Z,12.10
2023-02-04T18:14:28.278Z,12.10
2023-02-04T18:17:00.658Z,12.00
2023-02-04T18:19:37.136Z,12.00
2023-02-04T18:22:15.764Z,11.90
2023-02-04T18:24:50.591Z,11.90
2023-02-04T18:27:24.676Z,11.90
2023-02-04T18:29:56.873Z,11.90
2023-02-04T18:32:33.736Z,11.80
2023-02-04T18:35:15.417Z,11.80
2023-02-04T18:37:53.558Z,11.80
2023-02-04T18:40:30.803Z,11.80
2023-02-04T18:43:10.379Z,11.70
2023-02-04T18:45:38.180Z,11.70
2023-02-04T18:48:20.393Z,11.70
2023-02-04T18:50:50.221Z,11.70
2023-02-04T18:53:25.790Z,11.70
2023-02-04T18:55:58.105Z,11.70
2023-02-04T18:58:39.753Z,11.80
2023-02-04T19:01:13.239Z,11.80
2023-02-04T19:04:01.373Z,11.80
2023-02-04T19:06:38.465Z,11.80
2023-02-04T19:09:17.056Z,11.80
2023-02-04T19:11:57.106Z,11.80
2023-02-04T19:14:38.459Z,11.70
2023-02-04T19:17:15.571Z,11.80
2023-02-04T19:20:08.807Z,11.80
2023-02-04T19:22:43.723Z,11.70
2023-02-04T19:25:37.062Z,11.70
2023-02-04T19:28:17.014Z,11.70
2023-02-04T19:30:46.977Z,11.60
2023-02-04T19:33:25.870Z,11.60
2023-02-04T19:35:53.129Z,11.60
2023-02-04T19:38:45.360Z,11.60
2023-02-04T19:41:46.801Z,11.60
2023-02-04T19:44:14.087Z,11.60
2023-02-04T19:46:42.606Z,11.50
2023-02-04T19:49:30.112Z,11.50
2023-02-04T19:51:59.245Z,11.50
2023-02-04T19:54:39.098Z,11.50
2023-02-04T19:57:24.689Z,11.40
2023-02-04T19:59:56.793Z,11.40
2023-02-04T20:02:40.014Z,11.40
2023-02-04T20:05:22.688Z,11.40
2023-02-04T20:07:50.204Z,11.40
2023-02-04T20:10:29.487Z,11.40
2023-02-04T20:13:05.982Z,11.40
2023-02-04T20:15:33.613Z,11.40
2023-02-04T20:18:01.406Z,11.40
2023-02-04T20:20:32.687Z,11.40
2023-02-04T20:23:02.764Z,11.40
2023-02-04T20:25:47.481Z,11.30
2023-02-04T20:28:30.187Z,11.30
2023-02-04T20:31:00.763Z,11.30
2023-02-04T20:33:51.436Z,11.30
2023-02-04T20:36:39.860Z,11.30
2023-02-04T20:39:24.446Z,11.30
2023-02-04T20:41:51.587Z,11.30
2023-02-04T20:44:29.314Z,11.20
2023-02-04T20:47:18.849Z,11.20
2023-02-04T20:49:54.183Z,11.20
2023-02-04T20:52:41.449Z,11.20
2023-02-04T20:55:32.725Z,11.20
2023-02-04T20:58:17.046Z,11.20
2023-02-04T21:00:48.936Z,11.20
2023-02-04T21:03:27.419Z,11.20
2023-02-04T21:10:04.986Z,11.20
2023-02-04T21:12:32.364Z,11.20
2023-02-04T21:14:59.454Z,11.20
2023-02-04T21:17:26.772Z,11.20
2023-02-04T21:19:54.036Z,11.30
2023-02-04T21:22:22.613Z,11.30
2023-02-04T21:24:49.852Z,11.30
2023-02-04T21:27:17.864Z,11.20
2023-02-04T21:29:45.021Z,11.30
2023-02-04T21:32:12.280Z,11.20
2023-02-04T21:34:39.450Z,11.20
2023-02-04T21:37:06.623Z,11.20
2023-02-04T21:39:33.925Z,11.20
2023-02-04T21:42:17.709Z,11.20
2023-02-04T21:44:45.123Z,11.20
2023-02-04T21:47:13.391Z,11.20
2023-02-04T21:49:43.012Z,11.20
2023-02-04T21:52:13.642Z,11.20
2023-02-04T21:54:44.054Z,11.20
2023-02-04T21:57:11.332Z,11.20
2023-02-04T21:59:48.423Z,11.20
2023-02-04T22:02:15.761Z,11.10
2023-02-04T22:04:43.019Z,11.10
2023-02-04T22:07:10.186Z,11.10
2023-02-04T22:09:43.805Z,11.10
2023-02-04T22:12:10.981Z,11.00
2023-02-04T22:14:57.043Z,11.00
2023-02-04T22:17:24.308Z,11.00
2023-02-04T22:19:51.577Z,11.00
2023-02-04T22:22:19.018Z,10.90
2023-02-04T22:24:46.286Z,11.00
2023-02-04T22:27:13.993Z,11.00
2023-02-04T22:29:41.313Z,10.90
2023-02-04T22:32:08.595Z,10.90
2023-02-04T22:34:35.779Z,10.90
2023-02-04T22:37:03.185Z,10.90
2023-02-04T22:39:30.486Z,10.90
2023-02-04T22:42:01.071Z,10.90
2023-02-04T22:44:30.506Z,10.90
2023-02-04T22:46:57.991Z,10.90
2023-02-04T22:49:25.325Z,10.90
2023-02-04T22:51:52.584Z,10.90
2023-02-04T22:54:19.815Z,10.90
2023-02-04T22:56:49.711Z,10.90
2023-02-04T22:59:16.941Z,11.00
2023-02-04T23:01:52.727Z,10.90
2023-02-04T23:04:21.472Z,10.90
2023-02-04T23:06:52.161Z,11.00
2023-02-04T23:09:20.453Z,10.90
2023-02-04T23:11:48.156Z,11.00
2023-02-04T23:14:15.567Z,11.00
2023-02-04T23:16:43.032Z,10.90
2023-02-04T23:19:10.576Z,10.90
2023-02-04T23:21:37.740Z,11.00
2023-02-04T23:24:05.634Z,10.90
2023-02-04T23:26:35.239Z,10.90
2023-02-04T23:29:05.295Z,10.90
2023-02-04T23:31:32.810Z,10.90
2023-02-04T23:33:59.998Z,10.90
2023-02-04T23:36:27.294Z,10.90
2023-02-04T23:38:54.510Z,10.90
2023-02-04T23:41:21.847Z,10.90
2023-02-04T23:44:08.786Z,10.90
2023-02-04T23:47:13.687Z,10.80
2023-02-04T23:49:40.980Z,10.80
2023-02-04T23:52:08.652Z,10.80
2023-02-04T23:54:36.184Z,10.80
2023-02-04T23:57:05.286Z,10.70
2023-02-04T23:59:32.781Z,10.70
